createdAt,value
2019-02-20T00:01:19.638Z,98374.34
2019-02-20T00:03:49.944Z,98377.95
2019-02-20T00:06:20.250Z,98374.20
2019-02-20T00:08:50.509Z,98373.58
2019-02-20T00:11:20.922Z,98380.39
2019-02-20T00:13:51.166Z,98389.25
2019-02-20T00:16:21.517Z,98383.13
2019-02-20T00:18:51.779Z,98374.13
2019-02-20T00:21:21.954Z,98377.93
2019-02-20T00:23:52.197Z,98386.21
2019-02-20T00:26:22.429Z,98384.05
2019-02-20T00:28:52.770Z,98392.36
2019-02-20T00:31:23.163Z,98397.88
2019-02-20T00:33:53.370Z,98386.23
2019-02-20T00:36:23.605Z,98390.09
2019-02-20T00:38:53.876Z,98387.11
2019-02-20T00:41:24.213Z,98391.41
2019-02-20T00:44:13.376Z,98393.10
2019-02-20T00:46:55.378Z,98399.00
2019-02-20T00:49:35.955Z,98394.83
2019-02-20T00:52:21.761Z,98394.20
2019-02-20T00:54:52.125Z,98405.96
2019-02-20T00:57:22.374Z,98405.30
2019-02-20T00:59:52.542Z,98404.02
2019-02-20T01:02:22.858Z,98411.74
2019-02-20T01:04:53.126Z,98411.80
2019-02-20T01:07:23.517Z,98414.23
2019-02-20T01:09:53.690Z,98414.84
2019-02-20T01:12:24.225Z,98413.47
2019-02-20T01:14:54.471Z,98409.69
2019-02-20T01:17:24.617Z,98410.16
2019-02-20T01:19:54.796Z,98416.59
2019-02-20T01:22:25.023Z,98418.36
2019-02-20T01:24:55.225Z,98410.92
2019-02-20T01:27:25.518Z,98406.56
2019-02-20T01:29:55.698Z,98414.19
2019-02-20T01:32:25.995Z,98411.33
2019-02-20T01:34:56.256Z,98415.78
2019-02-20T01:37:26.464Z,98412.73
2019-02-20T01:39:56.710Z,98410.41
2019-02-20T01:42:27.052Z,98413.64
2019-02-20T01:44:57.506Z,98401.55
2019-02-20T01:47:27.945Z,98403.34
2019-02-20T01:49:58.355Z,98399.58
2019-02-20T01:52:28.741Z,98395.01
2019-02-20T01:54:58.907Z,98393.73
2019-02-20T01:57:29.103Z,98394.69
2019-02-20T01:59:59.217Z,98391.06
2019-02-20T02:02:29.477Z,98397.66
2019-02-20T02:04:59.632Z,98394.69
2019-02-20T02:07:29.765Z,98394.92
2019-02-20T02:09:59.925Z,98395.72
2019-02-20T02:12:30.125Z,98397.03
2019-02-20T02:15:00.405Z,98388.81
2019-02-20T02:17:30.554Z,98397.36
2019-02-20T02:20:00.791Z,98397.69
2019-02-20T02:22:31.086Z,98398.20
2019-02-20T02:25:01.218Z,98405.24
2019-02-20T02:27:31.354Z,98404.59
2019-02-20T02:30:01.825Z,98407.22
2019-02-20T02:32:31.937Z,98402.49
2019-02-20T02:35:02.232Z,98402.49
2019-02-20T02:37:32.516Z,98401.80
2019-02-20T02:40:02.807Z,98396.77
2019-02-20T02:42:32.986Z,98397.06
2019-02-20T02:45:03.221Z,98394.95
2019-02-20T02:47:33.411Z,98394.46
2019-02-20T02:50:03.629Z,98399.36
2019-02-20T02:52:36.908Z,98385.23
2019-02-20T02:55:07.268Z,98387.58
2019-02-20T02:57:37.494Z,98377.45
2019-02-20T03:00:08.248Z,98376.63
2019-02-20T03:02:38.519Z,98380.34
2019-02-20T03:05:09.035Z,98380.72
2019-02-20T03:07:41.304Z,98388.72
2019-02-20T03:10:11.653Z,98382.72
2019-02-20T03:12:41.876Z,98384.53
2019-02-20T03:15:12.487Z,98384.69
2019-02-20T03:17:42.647Z,98388.95
2019-02-20T03:20:13.071Z,98380.43
2019-02-20T03:22:43.381Z,98383.23
2019-02-20T03:25:13.552Z,98384.84
2019-02-20T03:27:43.906Z,98381.92
2019-02-20T03:30:14.278Z,98381.25
2019-02-20T03:32:44.410Z,98375.39
2019-02-20T03:35:14.804Z,98370.30
2019-02-20T03:37:44.949Z,98369.47
2019-02-20T03:40:15.313Z,98374.06
2019-02-20T03:42:45.583Z,98376.15
2019-02-20T03:45:15.927Z,98371.63
2019-02-20T03:47:46.168Z,98377.84
2019-02-20T03:50:16.471Z,98380.10
2019-02-20T03:52:46.768Z,98382.60
2019-02-20T03:55:16.978Z,98384.23
2019-02-20T03:57:47.343Z,98387.98
2019-02-20T04:00:17.700Z,98388.80
2019-02-20T04:02:47.968Z,98379.30
2019-02-20T04:05:18.196Z,98386.35
2019-02-20T04:07:48.419Z,98388.50
2019-02-20T04:10:18.671Z,98386.38
2019-02-20T04:12:49.024Z,98393.73
2019-02-20T04:15:20.320Z,98397.45
2019-02-20T04:17:50.504Z,98394.49
2019-02-20T04:20:20.705Z,98403.19
2019-02-20T04:22:50.815Z,98402.70
2019-02-20T04:25:21.019Z,98401.72
2019-02-20T04:27:51.256Z,98398.77
2019-02-20T04:30:22.536Z,98403.02
2019-02-20T04:32:52.766Z,98401.21
2019-02-20T04:35:22.898Z,98399.39
2019-02-20T04:37:53.105Z,98403.95
2019-02-20T04:40:23.202Z,98408.20
2019-02-20T04:43:01.301Z,98401.44
2019-02-20T04:45:31.560Z,98402.55
2019-02-20T04:48:01.671Z,98407.16
2019-02-20T04:50:31.861Z,98412.02
2019-02-20T04:53:01.999Z,98413.52
2019-02-20T04:55:32.202Z,98409.41
2019-02-20T04:58:19.920Z,98414.14
2019-02-20T05:00:51.322Z,98406.94
2019-02-20T05:03:23.151Z,98402.48
2019-02-20T05:05:53.495Z,98404.13
2019-02-20T05:08:23.693Z,98406.10
2019-02-20T05:10:53.829Z,98403.20
2019-02-20T05:13:24.021Z,98407.47
2019-02-20T05:15:54.307Z,98408.05
2019-02-20T05:18:24.485Z,98397.54
2019-02-20T05:20:54.910Z,98395.05
2019-02-20T05:23:25.170Z,98400.47
2019-02-20T05:25:55.448Z,98400.13
2019-02-20T05:28:25.661Z,98406.36
2019-02-20T05:30:55.916Z,98410.39
2019-02-20T05:33:26.293Z,98405.63
2019-02-20T05:35:56.498Z,98409.89
2019-02-20T05:38:26.624Z,98418.00
2019-02-20T05:40:56.817Z,98418.98
2019-02-20T05:43:27.008Z,98415.67
2019-02-20T05:45:57.143Z,98411.74
2019-02-20T05:48:27.291Z,98416.91
2019-02-20T05:50:57.394Z,98416.42
2019-02-20T05:53:27.637Z,98410.05
2019-02-20T05:55:57.779Z,98413.28
2019-02-20T05:58:27.932Z,98409.31
2019-02-20T06:00:58.173Z,98417.19
2019-02-20T06:03:28.415Z,98417.70
2019-02-20T06:05:58.517Z,98422.30
2019-02-20T06:08:28.670Z,98419.53
2019-02-20T06:10:58.863Z,98427.60
2019-02-20T06:13:29.069Z,98429.31
2019-02-20T06:15:59.336Z,98445.92
2019-02-20T06:18:29.584Z,98436.25
2019-02-20T06:20:59.950Z,98437.11
2019-02-20T06:23:30.088Z,98436.78
2019-02-20T06:26:00.194Z,98449.59
2019-02-20T06:28:30.356Z,98449.13
2019-02-20T06:31:01.504Z,98454.89
2019-02-20T06:33:31.736Z,98454.55
2019-02-20T06:36:01.859Z,98467.48
2019-02-20T06:38:32.047Z,98469.81
2019-02-20T06:41:02.172Z,98472.23
2019-02-20T06:43:32.507Z,98474.66
2019-02-20T06:46:02.659Z,98476.09
2019-02-20T06:48:32.831Z,98477.09
2019-02-20T06:51:04.056Z,98473.92
2019-02-20T06:53:34.194Z,98476.34
2019-02-20T06:56:04.418Z,98480.62
2019-02-20T06:58:34.622Z,98481.45
2019-02-20T07:01:04.806Z,98480.28
2019-02-20T07:03:34.964Z,98481.23
2019-02-20T07:06:40.510Z,98483.34
2019-02-20T07:09:33.969Z,98490.59
2019-02-20T07:12:30.201Z,98490.08
2019-02-20T07:16:15.352Z,98501.21
2019-02-20T07:19:17.503Z,98496.22
2019-02-20T07:22:32.316Z,98492.30
2019-02-20T07:25:27.388Z,98503.16
2019-02-20T07:29:18.947Z,98507.36
2019-02-20T07:31:49.072Z,98506.72
2019-02-20T07:34:19.223Z,98502.03
2019-02-20T07:36:49.374Z,98508.27
2019-02-20T07:39:19.556Z,98504.95
2019-02-20T07:41:49.675Z,98504.89
2019-02-20T07:44:20.122Z,98511.62
2019-02-20T07:46:50.221Z,98511.30
2019-02-20T07:49:20.374Z,98504.54
2019-02-20T07:51:50.508Z,98504.48
2019-02-20T07:54:20.645Z,98512.89
2019-02-20T07:56:50.788Z,98514.27
2019-02-20T07:59:21.012Z,98513.58
2019-02-20T08:01:51.117Z,98520.28
2019-02-20T08:04:21.247Z,98508.69
2019-02-20T08:06:51.447Z,98512.38
2019-02-20T08:09:21.676Z,98517.34
2019-02-20T08:11:52.048Z,98518.08
2019-02-20T08:14:22.201Z,98520.40
2019-02-20T08:16:52.938Z,98518.64
2019-02-20T08:19:23.088Z,98533.02
2019-02-20T08:21:53.385Z,98527.10
2019-02-20T08:24:23.505Z,98528.78
2019-02-20T08:26:53.660Z,98528.56
2019-02-20T08:29:24.640Z,98526.92
2019-02-20T08:31:54.897Z,98526.06
2019-02-20T08:34:25.116Z,98524.41
2019-02-20T08:36:55.315Z,98524.00
2019-02-20T08:39:25.517Z,98521.48
2019-02-20T08:41:55.749Z,98524.08
2019-02-20T08:44:25.953Z,98520.55
2019-02-20T08:46:56.099Z,98528.42
2019-02-20T08:49:26.302Z,98526.77
2019-02-20T08:51:56.479Z,98533.06
2019-02-20T08:54:26.687Z,98528.61
2019-02-20T08:56:56.849Z,98532.83
2019-02-20T08:59:27.060Z,98527.58
2019-02-20T09:01:57.457Z,98531.42
2019-02-20T09:04:27.653Z,98529.41
2019-02-20T09:06:57.985Z,98526.77
2019-02-20T09:09:28.175Z,98522.53
2019-02-20T09:11:58.394Z,98528.57
2019-02-20T09:14:28.530Z,98525.92
2019-02-20T09:16:58.869Z,98534.38
2019-02-20T09:19:29.157Z,98527.38
2019-02-20T09:21:59.550Z,98531.24
2019-02-20T09:24:29.679Z,98541.09
2019-02-20T09:26:59.921Z,98538.29
2019-02-20T09:29:30.348Z,98538.34
2019-02-20T09:32:00.652Z,98532.30
2019-02-20T09:34:30.863Z,98536.86
2019-02-20T09:37:01.219Z,98539.31
2019-02-20T09:39:38.864Z,98544.58
2019-02-20T09:42:20.943Z,98542.56
2019-02-20T09:44:52.460Z,98545.92
2019-02-20T09:47:22.782Z,98548.17
2019-02-20T09:49:52.973Z,98551.49
2019-02-20T09:52:23.283Z,98560.45
2019-02-20T09:54:53.376Z,98559.05
2019-02-20T09:57:23.686Z,98561.98
2019-02-20T09:59:53.904Z,98567.09
2019-02-20T10:02:24.158Z,98567.89
2019-02-20T10:04:54.360Z,98568.48
2019-02-20T10:07:24.609Z,98571.07
2019-02-20T10:09:54.744Z,98571.61
2019-02-20T10:12:24.952Z,98570.35
2019-02-20T10:14:55.088Z,98579.05
2019-02-20T10:17:27.439Z,98572.23
2019-02-20T10:19:57.590Z,98574.03
2019-02-20T10:22:27.952Z,98568.70
2019-02-20T10:24:58.237Z,98573.88
2019-02-20T10:27:28.536Z,98578.34
2019-02-20T10:29:58.712Z,98584.23
2019-02-20T10:32:29.104Z,98586.66
2019-02-20T10:34:59.261Z,98589.13
2019-02-20T10:37:29.531Z,98592.06
2019-02-20T10:39:59.855Z,98589.71
2019-02-20T10:42:30.168Z,98591.34
2019-02-20T10:45:00.303Z,98590.66
2019-02-20T10:47:30.652Z,98591.31
2019-02-20T10:50:01.072Z,98587.19
2019-02-20T10:52:31.236Z,98594.85
2019-02-20T10:55:01.376Z,98589.94
2019-02-20T10:57:31.597Z,98591.63
2019-02-20T11:00:01.815Z,98588.03
2019-02-20T11:02:32.045Z,98594.80
2019-02-20T11:05:02.172Z,98593.94
2019-02-20T11:07:32.359Z,98593.48
2019-02-20T11:10:02.619Z,98593.92
2019-02-20T11:12:32.776Z,98592.27
2019-02-20T11:15:02.953Z,98589.53
2019-02-20T11:17:33.083Z,98590.81
2019-02-20T11:20:03.327Z,98593.33
2019-02-20T11:22:33.629Z,98588.28
2019-02-20T11:25:03.953Z,98590.80
2019-02-20T11:27:34.238Z,98593.19
2019-02-20T11:30:04.788Z,98592.36
2019-02-20T11:32:34.910Z,98583.22
2019-02-20T11:35:05.845Z,98592.54
2019-02-20T11:37:36.203Z,98600.64
2019-02-20T11:40:07.816Z,98595.80
2019-02-20T11:42:38.120Z,98596.94
2019-02-20T11:45:09.159Z,98597.55
2019-02-20T11:47:39.416Z,98597.95
2019-02-20T11:50:10.334Z,98592.17
2019-02-20T11:52:40.689Z,98590.36
2019-02-20T11:55:11.087Z,98597.27
2019-02-20T11:57:41.557Z,98592.60
2019-02-20T12:00:12.655Z,98591.51
2019-02-20T12:02:43.028Z,98593.76
2019-02-20T12:05:13.756Z,98592.76
2019-02-20T12:07:44.038Z,98584.96
2019-02-20T12:10:15.428Z,98600.48
2019-02-20T12:12:45.851Z,98594.47
2019-02-20T12:15:16.849Z,98596.57
2019-02-20T12:17:47.019Z,98596.02
2019-02-20T12:20:17.205Z,98600.73
2019-02-20T12:22:47.745Z,98594.80
2019-02-20T12:25:18.186Z,98596.54
2019-02-20T12:27:48.544Z,98590.16
2019-02-20T12:30:18.987Z,98593.59
2019-02-20T12:32:49.365Z,98594.42
2019-02-20T12:35:19.771Z,98595.16
2019-02-20T12:37:49.925Z,98595.67
2019-02-20T12:40:20.156Z,98590.13
2019-02-20T12:42:50.370Z,98579.07
2019-02-20T12:45:20.525Z,98569.83
2019-02-20T12:47:50.803Z,98575.52
2019-02-20T12:50:21.050Z,98570.30
2019-02-20T12:52:51.207Z,98563.09
2019-02-20T12:55:21.512Z,98570.94
2019-02-20T12:57:51.687Z,98563.13
2019-02-20T13:00:22.707Z,98567.95
2019-02-20T13:02:53.053Z,98563.92
2019-02-20T13:05:23.472Z,98560.85
2019-02-20T13:07:53.603Z,98563.52
2019-02-20T13:10:23.771Z,98565.26
2019-02-20T13:12:54.048Z,98564.23
2019-02-20T13:15:24.269Z,98560.23
2019-02-20T13:17:54.491Z,98566.19
2019-02-20T13:20:24.743Z,98566.61
2019-02-20T13:22:55.046Z,98565.73
2019-02-20T13:25:25.393Z,98558.02
2019-02-20T13:27:55.676Z,98567.02
2019-02-20T13:30:25.819Z,98567.02
2019-02-20T13:32:55.963Z,98564.28
2019-02-20T13:35:26.131Z,98563.02
2019-02-20T13:37:56.415Z,98563.05
2019-02-20T13:40:26.637Z,98559.00
2019-02-20T13:42:56.938Z,98562.94
2019-02-20T13:45:27.292Z,98562.66
2019-02-20T13:47:57.682Z,98559.66
2019-02-20T13:50:28.067Z,98563.86
2019-02-20T13:52:58.328Z,98556.71
2019-02-20T13:55:34.440Z,98563.55
2019-02-20T13:58:01.266Z,98558.48
2019-02-20T14:00:31.653Z,98563.16
2019-02-20T14:03:02.551Z,98561.56
2019-02-20T14:05:33.001Z,98557.70
2019-02-20T14:08:03.324Z,98559.20
2019-02-20T14:10:33.808Z,98560.05
2019-02-20T14:13:04.238Z,98556.78
2019-02-20T14:15:34.681Z,98561.27
2019-02-20T14:18:05.506Z,98563.19
2019-02-20T14:20:35.960Z,98564.36
2019-02-20T14:23:06.887Z,98568.84
2019-02-20T14:25:37.337Z,98557.98
2019-02-20T14:28:07.921Z,98563.16
2019-02-20T14:30:38.375Z,98562.84
2019-02-20T14:33:08.771Z,98553.12
2019-02-20T14:35:39.162Z,98560.23
2019-02-20T14:38:09.491Z,98559.36
2019-02-20T14:40:39.961Z,98559.28
2019-02-20T14:43:10.397Z,98561.34
2019-02-20T14:45:40.897Z,98561.45
2019-02-20T14:48:11.327Z,98561.44
2019-02-20T14:50:41.658Z,98563.94
2019-02-20T14:53:11.989Z,98562.20
2019-02-20T14:55:42.295Z,98556.75
2019-02-20T14:58:12.713Z,98555.34
2019-02-20T15:00:43.450Z,98554.27
2019-02-20T15:03:14.039Z,98554.61
2019-02-20T15:05:44.560Z,98552.37
2019-02-20T15:08:15.094Z,98555.86
2019-02-20T15:10:45.496Z,98551.56
2019-02-20T15:13:15.870Z,98555.98
2019-02-20T15:15:47.452Z,98546.02
2019-02-20T15:18:17.881Z,98547.17
2019-02-20T15:20:48.835Z,98555.69
2019-02-20T15:23:19.361Z,98553.75
2019-02-20T15:25:49.681Z,98559.22
2019-02-20T15:28:20.305Z,98555.56
2019-02-20T15:30:50.941Z,98549.88
2019-02-20T15:33:21.407Z,98550.34
2019-02-20T15:35:52.066Z,98547.92
2019-02-20T15:38:22.579Z,98545.91
2019-02-20T15:40:52.942Z,98543.66
2019-02-20T15:43:23.709Z,98547.00
2019-02-20T15:45:54.048Z,98544.55
2019-02-20T15:48:24.424Z,98542.41
2019-02-20T15:50:54.663Z,98540.32
2019-02-20T15:53:24.917Z,98542.69
2019-02-20T15:55:55.238Z,98541.73
2019-02-20T15:58:27.225Z,98541.86
2019-02-20T16:00:57.742Z,98539.77
2019-02-20T16:03:28.082Z,98540.77
2019-02-20T16:05:58.333Z,98543.33
2019-02-20T16:08:28.577Z,98542.83
2019-02-20T16:10:59.236Z,98541.51
2019-02-20T16:13:29.508Z,98545.09
2019-02-20T16:15:59.760Z,98542.62
2019-02-20T16:18:29.962Z,98547.45
2019-02-20T16:21:00.209Z,98552.31
2019-02-20T16:23:30.397Z,98552.91
2019-02-20T16:26:02.209Z,98548.17
2019-02-20T16:28:34.025Z,98552.14
2019-02-20T16:31:04.540Z,98547.02
2019-02-20T16:33:34.784Z,98544.20
2019-02-20T16:36:05.091Z,98545.43
2019-02-20T16:38:35.473Z,98552.55
2019-02-20T16:41:05.690Z,98551.56
2019-02-20T16:43:35.929Z,98557.70
2019-02-20T16:46:06.297Z,98561.52
2019-02-20T16:48:36.775Z,98565.06
2019-02-20T16:51:07.153Z,98573.28
2019-02-20T16:53:37.505Z,98565.32
2019-02-20T16:56:09.024Z,98566.19
2019-02-20T16:58:39.318Z,98570.42
2019-02-20T17:01:09.797Z,98574.64
2019-02-20T17:03:40.057Z,98576.50
2019-02-20T17:06:10.355Z,98581.09
2019-02-20T17:08:41.352Z,98581.73
2019-02-20T17:11:11.883Z,98588.95
2019-02-20T17:13:42.178Z,98591.00
2019-02-20T17:16:12.392Z,98588.91
2019-02-20T17:18:42.687Z,98592.70
2019-02-20T17:21:13.053Z,98589.05
2019-02-20T17:23:43.376Z,98592.73
2019-02-20T17:26:13.719Z,98598.95
2019-02-20T17:28:44.026Z,98596.62
2019-02-20T17:31:14.233Z,98607.92
2019-02-20T17:33:44.521Z,98602.92
2019-02-20T17:36:15.239Z,98606.47
2019-02-20T17:38:46.445Z,98609.33
2019-02-20T17:41:17.274Z,98606.97
2019-02-20T17:43:47.726Z,98605.53
2019-02-20T17:46:18.718Z,98609.81
2019-02-20T17:48:49.060Z,98603.61
2019-02-20T17:51:19.311Z,98609.06
2019-02-20T17:53:49.518Z,98620.14
2019-02-20T17:56:19.835Z,98620.45
2019-02-20T17:58:49.977Z,98615.34
2019-02-20T18:01:20.304Z,98620.67
2019-02-20T18:03:50.493Z,98614.97
2019-02-20T18:06:20.673Z,98617.38
2019-02-20T18:08:50.880Z,98623.36
2019-02-20T18:11:21.070Z,98625.98
2019-02-20T18:13:51.380Z,98626.27
2019-02-20T18:16:21.618Z,98628.06
2019-02-20T18:18:51.841Z,98630.91
2019-02-20T18:21:22.126Z,98627.88
2019-02-20T18:23:52.397Z,98625.02
2019-02-20T18:26:22.517Z,98630.91
2019-02-20T18:28:52.833Z,98634.27
2019-02-20T18:31:23.202Z,98629.77
2019-02-20T18:33:53.511Z,98632.70
2019-02-20T18:36:23.865Z,98630.28
2019-02-20T18:38:54.042Z,98637.70
2019-02-20T18:41:24.430Z,98641.81
2019-02-20T18:43:54.580Z,98638.27
2019-02-20T18:46:24.777Z,98636.20
2019-02-20T18:48:55.100Z,98631.50
2019-02-20T18:51:25.395Z,98645.63
2019-02-20T18:53:55.660Z,98639.53
2019-02-20T18:56:27.026Z,98636.03
2019-02-20T18:59:00.949Z,98639.49
2019-02-20T19:01:31.254Z,98646.05
2019-02-20T19:04:01.539Z,98641.77
2019-02-20T19:06:31.685Z,98646.82
2019-02-20T19:09:32.282Z,98646.48
2019-02-20T19:12:59.557Z,98644.10
2019-02-20T19:15:56.088Z,98651.33
2019-02-20T19:19:02.369Z,98652.86
2019-02-20T19:22:34.106Z,98652.48
2019-02-20T19:26:01.013Z,98660.69
2019-02-20T19:29:05.056Z,98666.41
2019-02-20T19:32:33.838Z,98668.08
2019-02-20T19:35:35.589Z,98673.91
2019-02-20T19:39:04.685Z,98679.06
2019-02-20T19:42:29.962Z,98686.14
2019-02-20T19:45:31.504Z,98691.31
2019-02-20T19:48:58.975Z,98692.53
2019-02-20T19:52:12.699Z,98701.81
2019-02-20T19:55:29.510Z,98696.24
2019-02-20T19:59:01.391Z,98705.63
2019-02-20T20:02:43.938Z,98702.66
2019-02-20T20:06:22.002Z,98704.48
2019-02-20T20:09:38.799Z,98702.56
2019-02-20T20:12:56.909Z,98704.55
2019-02-20T20:15:40.626Z,98702.66
2019-02-20T20:19:01.419Z,98703.16
2019-02-20T20:21:59.682Z,98710.16
2019-02-20T20:25:16.258Z,98709.33
2019-02-20T20:28:53.446Z,98712.40
2019-02-20T20:32:03.190Z,98710.66
2019-02-20T20:35:38.709Z,98716.56
2019-02-20T20:38:55.970Z,98718.67
2019-02-20T20:42:16.142Z,98722.25
2019-02-20T20:45:35.567Z,98728.97
2019-02-20T20:49:23.397Z,98722.86
2019-02-20T20:52:52.817Z,98717.69
2019-02-20T20:56:06.105Z,98717.15
2019-02-20T20:59:18.286Z,98719.79
2019-02-20T21:02:16.654Z,98718.58
2019-02-20T21:05:33.434Z,98723.80
2019-02-20T21:08:38.621Z,98719.76
2019-02-20T21:12:13.558Z,98719.47
2019-02-20T21:15:21.163Z,98726.72
2019-02-20T21:18:28.861Z,98723.69
2019-02-20T21:21:32.048Z,98717.44
2019-02-20T21:24:30.119Z,98719.03
2019-02-20T21:28:08.616Z,98721.61
2019-02-20T21:31:32.260Z,98722.00
2019-02-20T21:34:37.776Z,98719.72
2019-02-20T21:37:52.005Z,98718.65
2019-02-20T21:40:50.555Z,98720.47
2019-02-20T21:43:59.502Z,98716.08
2019-02-20T21:47:24.334Z,98710.30
2019-02-20T21:50:31.284Z,98713.19
2019-02-20T21:53:51.200Z,98717.42
2019-02-20T21:56:54.116Z,98715.23
2019-02-20T22:00:27.873Z,98709.21
2019-02-20T22:03:42.523Z,98716.85
2019-02-20T22:06:41.036Z,98718.99
2019-02-20T22:09:46.099Z,98717.90
2019-02-20T22:12:51.209Z,98726.05
2019-02-20T22:16:15.816Z,98725.75
2019-02-20T22:19:46.015Z,98729.15
2019-02-20T22:22:46.753Z,98736.08
2019-02-20T22:25:33.695Z,98733.14
2019-02-20T22:28:59.951Z,98739.55
2019-02-20T22:32:14.638Z,98728.02
2019-02-20T22:35:29.727Z,98724.93
2019-02-20T22:38:45.517Z,98722.02
2019-02-20T22:42:04.762Z,98729.47
2019-02-20T22:45:11.786Z,98727.57
2019-02-20T22:48:09.554Z,98723.34
2019-02-20T22:51:45.327Z,98727.95
2019-02-20T22:55:25.912Z,98724.41
2019-02-20T22:58:09.918Z,98738.23
2019-02-20T23:02:04.675Z,98737.48
2019-02-20T23:05:18.471Z,98743.31
2019-02-20T23:08:01.718Z,98747.20
2019-02-20T23:11:28.616Z,98740.09
2019-02-20T23:14:38.652Z,98751.31
2019-02-20T23:17:08.921Z,98737.85
2019-02-20T23:19:39.238Z,98750.80
2019-02-20T23:22:09.471Z,98753.59
2019-02-20T23:24:42.028Z,98761.03
2019-02-20T23:27:11.599Z,98751.05
2019-02-20T23:29:41.876Z,98753.33
2019-02-20T23:32:12.140Z,98755.33
2019-02-20T23:34:42.509Z,98758.31
2019-02-20T23:37:12.696Z,98757.30
2019-02-20T23:39:42.903Z,98754.91
2019-02-20T23:42:13.103Z,98758.34
2019-02-20T23:44:43.844Z,98762.03
2019-02-20T23:47:13.949Z,98751.65
2019-02-20T23:49:44.184Z,98758.92
2019-02-20T23:52:14.372Z,98760.76
2019-02-20T23:54:44.529Z,98763.43
2019-02-20T23:57:14.631Z,98769.81
2019-02-20T23:59:44.765Z,98762.39
